sensor_id;sensor_type;location;lat;lon;timestamp;temperature;humidity
38592;DHT22;24356;48.460;11.450;2023-04-06T00:01:36;-1.20;76.00
38592;DHT22;24356;48.460;11.450;2023-04-06T00:04:02;-1.20;76.00
38592;DHT22;24356;48.460;11.450;2023-04-06T00:06:27;-1.30;76.10
38592;DHT22;24356;48.460;11.450;2023-04-06T00:08:55;-1.30;76.00
38592;DHT22;24356;48.460;11.450;2023-04-06T00:11:21;-1.30;76.00
38592;DHT22;24356;48.460;11.450;2023-04-06T00:13:46;-1.30;76.10
38592;DHT22;24356;48.460;11.450;2023-04-06T00:16:12;-1.40;76.10
38592;DHT22;24356;48.460;11.450;2023-04-06T00:18:38;-1.40;76.10
38592;DHT22;24356;48.460;11.450;2023-04-06T00:21:03;-1.40;76.20
38592;DHT22;24356;48.460;11.450;2023-04-06T00:23:29;-1.40;76.10
38592;DHT22;24356;48.460;11.450;2023-04-06T00:25:55;-1.50;76.10
38592;DHT22;24356;48.460;11.450;2023-04-06T00:28:21;-1.50;76.20
38592;DHT22;24356;48.460;11.450;2023-04-06T00:30:51;-1.50;76.20
38592;DHT22;24356;48.460;11.450;2023-04-06T00:33:24;-1.50;76.10
38592;DHT22;24356;48.460;11.450;2023-04-06T00:35:50;-1.50;76.10
38592;DHT22;24356;48.460;11.450;2023-04-06T00:38:15;-1.50;76.10
38592;DHT22;24356;48.460;11.450;2023-04-06T00:40:42;-1.60;76.10
38592;DHT22;24356;48.460;11.450;2023-04-06T00:43:09;-1.60;76.10
38592;DHT22;24356;48.460;11.450;2023-04-06T00:45:36;-1.60;76.10
38592;DHT22;24356;48.460;11.450;2023-04-06T00:48:03;-1.60;76.10
38592;DHT22;24356;48.460;11.450;2023-04-06T00:50:28;-1.70;76.20
38592;DHT22;24356;48.460;11.450;2023-04-06T00:52:54;-1.70;76.20
38592;DHT22;24356;48.460;11.450;2023-04-06T00:55:21;-1.70;76.10
38592;DHT22;24356;48.460;11.450;2023-04-06T00:57:46;-1.70;76.20
38592;DHT22;24356;48.460;11.450;2023-04-06T01:00:13;-1.70;76.10
38592;DHT22;24356;48.460;11.450;2023-04-06T01:02:38;-1.80;76.20
38592;DHT22;24356;48.460;11.450;2023-04-06T01:05:05;-1.80;76.10
38592;DHT22;24356;48.460;11.450;2023-04-06T01:07:30;-1.80;76.20
38592;DHT22;24356;48.460;11.450;2023-04-06T01:09:56;-1.80;76.30
38592;DHT22;24356;48.460;11.450;2023-04-06T01:12:21;-1.80;76.30
38592;DHT22;24356;48.460;11.450;2023-04-06T01:14:47;-1.80;76.30
38592;DHT22;24356;48.460;11.450;2023-04-06T01:17:13;-1.90;76.30
38592;DHT22;24356;48.460;11.450;2023-04-06T01:19:39;-1.90;76.40
38592;DHT22;24356;48.460;11.450;2023-04-06T01:22:06;-1.90;76.30
38592;DHT22;24356;48.460;11.450;2023-04-06T01:24:32;-1.90;76.30
38592;DHT22;24356;48.460;11.450;2023-04-06T01:26:58;-2.00;76.20
38592;DHT22;24356;48.460;11.450;2023-04-06T01:29:23;-2.00;76.30
38592;DHT22;24356;48.460;11.450;2023-04-06T01:31:49;-2.00;76.30
38592;DHT22;24356;48.460;11.450;2023-04-06T01:34:15;-2.00;76.30
38592;DHT22;24356;48.460;11.450;2023-04-06T01:36:42;-2.00;76.30
38592;DHT22;24356;48.460;11.450;2023-04-06T01:39:08;-2.00;76.40
38592;DHT22;24356;48.460;11.450;2023-04-06T01:41:34;-2.10;76.40
38592;DHT22;24356;48.460;11.450;2023-04-06T01:43:59;-2.10;76.50
38592;DHT22;24356;48.460;11.450;2023-04-06T01:46:25;-2.10;76.50
38592;DHT22;24356;48.460;11.450;2023-04-06T01:48:50;-2.10;76.40
38592;DHT22;24356;48.460;11.450;2023-04-06T01:51:16;-2.10;76.40
38592;DHT22;24356;48.460;11.450;2023-04-06T01:53:42;-2.10;76.40
38592;DHT22;24356;48.460;11.450;2023-04-06T01:56:07;-2.20;76.40
38592;DHT22;24356;48.460;11.450;2023-04-06T01:58:34;-2.20;76.50
38592;DHT22;24356;48.460;11.450;2023-04-06T02:01:01;-2.20;76.50
38592;DHT22;24356;48.460;11.450;2023-04-06T02:03:28;-2.20;76.40
38592;DHT22;24356;48.460;11.450;2023-04-06T02:05:54;-2.20;76.60
38592;DHT22;24356;48.460;11.450;2023-04-06T02:08:20;-2.20;76.40
38592;DHT22;24356;48.460;11.450;2023-04-06T02:10:45;-2.30;76.40
38592;DHT22;24356;48.460;11.450;2023-04-06T02:13:11;-2.30;76.40
38592;DHT22;24356;48.460;11.450;2023-04-06T02:15:36;-2.30;76.40
38592;DHT22;24356;48.460;11.450;2023-04-06T02:18:02;-2.30;76.40
38592;DHT22;24356;48.460;11.450;2023-04-06T02:20:27;-2.30;76.60
38592;DHT22;24356;48.460;11.450;2023-04-06T02:22:53;-2.40;76.60
38592;DHT22;24356;48.460;11.450;2023-04-06T02:25:19;-2.40;76.60
38592;DHT22;24356;48.460;11.450;2023-04-06T02:27:44;-2.40;76.60
38592;DHT22;24356;48.460;11.450;2023-04-06T02:30:10;-2.40;76.60
38592;DHT22;24356;48.460;11.450;2023-04-06T02:32:36;-2.40;76.60
38592;DHT22;24356;48.460;11.450;2023-04-06T02:35:01;-2.50;76.70
38592;DHT22;24356;48.460;11.450;2023-04-06T02:37:27;-2.50;76.70
38592;DHT22;24356;48.460;11.450;2023-04-06T02:39:53;-2.50;76.60
38592;DHT22;24356;48.460;11.450;2023-04-06T02:42:19;-2.50;76.70
38592;DHT22;24356;48.460;11.450;2023-04-06T02:44:44;-2.50;76.60
38592;DHT22;24356;48.460;11.450;2023-04-06T02:47:10;-2.50;76.60
38592;DHT22;24356;48.460;11.450;2023-04-06T02:49:36;-2.60;76.60
38592;DHT22;24356;48.460;11.450;2023-04-06T02:52:04;-2.60;76.70
38592;DHT22;24356;48.460;11.450;2023-04-06T02:54:29;-2.60;76.70
38592;DHT22;24356;48.460;11.450;2023-04-06T02:56:55;-2.60;76.60
38592;DHT22;24356;48.460;11.450;2023-04-06T02:59:21;-2.60;76.60
38592;DHT22;24356;48.460;11.450;2023-04-06T03:01:46;-2.60;76.70
38592;DHT22;24356;48.460;11.450;2023-04-06T03:04:12;-2.60;76.70
38592;DHT22;24356;48.460;11.450;2023-04-06T03:06:37;-2.70;76.70
38592;DHT22;24356;48.460;11.450;2023-04-06T03:09:07;-2.70;76.70
38592;DHT22;24356;48.460;11.450;2023-04-06T03:11:32;-2.70;76.70
38592;DHT22;24356;48.460;11.450;2023-04-06T03:13:58;-2.70;76.80
38592;DHT22;24356;48.460;11.450;2023-04-06T03:16:24;-2.70;76.80
38592;DHT22;24356;48.460;11.450;2023-04-06T03:18:50;-2.70;76.80
38592;DHT22;24356;48.460;11.450;2023-04-06T03:21:15;-2.70;76.80
38592;DHT22;24356;48.460;11.450;2023-04-06T03:23:42;-2.70;76.70
38592;DHT22;24356;48.460;11.450;2023-04-06T03:26:07;-2.80;76.70
38592;DHT22;24356;48.460;11.450;2023-04-06T03:28:33;-2.80;76.70
38592;DHT22;24356;48.460;11.450;2023-04-06T03:30:59;-2.80;76.80
38592;DHT22;24356;48.460;11.450;2023-04-06T03:33:26;-2.80;76.80
38592;DHT22;24356;48.460;11.450;2023-04-06T03:35:53;-2.80;76.70
38592;DHT22;24356;48.460;11.450;2023-04-06T03:38:18;-2.80;76.70
38592;DHT22;24356;48.460;11.450;2023-04-06T03:40:44;-2.80;76.70
38592;DHT22;24356;48.460;11.450;2023-04-06T03:43:11;-2.90;76.70
38592;DHT22;24356;48.460;11.450;2023-04-06T03:45:37;-2.90;76.70
38592;DHT22;24356;48.460;11.450;2023-04-06T03:48:04;-2.90;76.90
38592;DHT22;24356;48.460;11.450;2023-04-06T03:50:29;-2.90;76.90
38592;DHT22;24356;48.460;11.450;2023-04-06T03:52:55;-2.90;76.90
38592;DHT22;24356;48.460;11.450;2023-04-06T03:55:20;-2.90;76.90
38592;DHT22;24356;48.460;11.450;2023-04-06T03:57:46;-2.90;76.90
38592;DHT22;24356;48.460;11.450;2023-04-06T04:00:13;-2.90;76.90
38592;DHT22;24356;48.460;11.450;2023-04-06T04:02:39;-2.90;76.90
38592;DHT22;24356;48.460;11.450;2023-04-06T04:05:05;-3.00;76.90
38592;DHT22;24356;48.460;11.450;2023-04-06T04:07:31;-3.00;76.90
38592;DHT22;24356;48.460;11.450;2023-04-06T04:09:58;-3.00;76.90
38592;DHT22;24356;48.460;11.450;2023-04-06T04:12:23;-3.00;76.90
38592;DHT22;24356;48.460;11.450;2023-04-06T04:14:49;-3.00;76.90
38592;DHT22;24356;48.460;11.450;2023-04-06T04:17:15;-3.00;76.90
38592;DHT22;24356;48.460;11.450;2023-04-06T04:19:40;-3.00;76.90
38592;DHT22;24356;48.460;11.450;2023-04-06T04:22:06;-3.10;76.80
38592;DHT22;24356;48.460;11.450;2023-04-06T04:24:32;-3.10;76.90
38592;DHT22;24356;48.460;11.450;2023-04-06T04:26:59;-3.10;77.00
38592;DHT22;24356;48.460;11.450;2023-04-06T04:29:26;-3.10;77.00
38592;DHT22;24356;48.460;11.450;2023-04-06T04:31:52;-3.10;77.00
38592;DHT22;24356;48.460;11.450;2023-04-06T04:34:18;-3.10;76.90
38592;DHT22;24356;48.460;11.450;2023-04-06T04:36:46;-3.10;77.00
38592;DHT22;24356;48.460;11.450;2023-04-06T04:39:12;-3.20;77.00
38592;DHT22;24356;48.460;11.450;2023-04-06T04:41:38;-3.20;77.00
38592;DHT22;24356;48.460;11.450;2023-04-06T04:44:05;-3.20;77.00
38592;DHT22;24356;48.460;11.450;2023-04-06T04:46:30;-3.20;77.00
38592;DHT22;24356;48.460;11.450;2023-04-06T04:48:56;-3.20;77.00
38592;DHT22;24356;48.460;11.450;2023-04-06T04:51:21;-3.20;77.00
38592;DHT22;24356;48.460;11.450;2023-04-06T04:53:47;-3.20;77.00
38592;DHT22;24356;48.460;11.450;2023-04-06T04:56:13;-3.20;77.00
38592;DHT22;24356;48.460;11.450;2023-04-06T04:58:38;-3.20;77.00
38592;DHT22;24356;48.460;11.450;2023-04-06T05:01:04;-3.20;77.00
38592;DHT22;24356;48.460;11.450;2023-04-06T05:03:30;-3.20;77.00
38592;DHT22;24356;48.460;11.450;2023-04-06T05:05:55;-3.20;77.00
38592;DHT22;24356;48.460;11.450;2023-04-06T05:08:21;-3.20;77.00
38592;DHT22;24356;48.460;11.450;2023-04-06T05:10:47;-3.20;77.10
38592;DHT22;24356;48.460;11.450;2023-04-06T05:13:13;-3.20;77.10
38592;DHT22;24356;48.460;11.450;2023-04-06T05:15:39;-3.20;77.00
38592;DHT22;24356;48.460;11.450;2023-04-06T05:18:06;-3.20;77.10
38592;DHT22;24356;48.460;11.450;2023-04-06T05:20:32;-3.20;77.10
38592;DHT22;24356;48.460;11.450;2023-04-06T05:22:58;-3.20;77.10
38592;DHT22;24356;48.460;11.450;2023-04-06T05:25:24;-3.10;77.10
38592;DHT22;24356;48.460;11.450;2023-04-06T05:27:49;-3.10;77.00
38592;DHT22;24356;48.460;11.450;2023-04-06T05:30:15;-3.10;77.00
38592;DHT22;24356;48.460;11.450;2023-04-06T05:32:41;-3.10;77.00
38592;DHT22;24356;48.460;11.450;2023-04-06T05:35:10;-3.10;77.10
38592;DHT22;24356;48.460;11.450;2023-04-06T05:37:36;-3.10;77.00
38592;DHT22;24356;48.460;11.450;2023-04-06T05:40:02;-3.00;77.10
38592;DHT22;24356;48.460;11.450;2023-04-06T05:42:39;-2.90;77.00
38592;DHT22;24356;48.460;11.450;2023-04-06T05:45:06;-2.90;76.80
38592;DHT22;24356;48.460;11.450;2023-04-06T05:47:31;-2.80;77.20
38592;DHT22;24356;48.460;11.450;2023-04-06T05:49:57;-2.70;77.00
38592;DHT22;24356;48.460;11.450;2023-04-06T05:52:23;-2.60;76.90
38592;DHT22;24356;48.460;11.450;2023-04-06T05:54:48;-2.50;76.90
38592;DHT22;24356;48.460;11.450;2023-04-06T05:57:16;-2.40;77.00
38592;DHT22;24356;48.460;11.450;2023-04-06T05:59:44;-2.30;76.90
38592;DHT22;24356;48.460;11.450;2023-04-06T06:02:10;-2.10;76.60
38592;DHT22;24356;48.460;11.450;2023-04-06T06:04:35;-2.00;76.60
38592;DHT22;24356;48.460;11.450;2023-04-06T06:07:01;-1.80;76.30
38592;DHT22;24356;48.460;11.450;2023-04-06T06:09:27;-1.60;75.90
38592;DHT22;24356;48.460;11.450;2023-04-06T06:11:53;-1.40;75.80
38592;DHT22;24356;48.460;11.450;2023-04-06T06:14:19;-1.10;76.00
38592;DHT22;24356;48.460;11.450;2023-04-06T06:16:45;-0.80;75.50
38592;DHT22;24356;48.460;11.450;2023-04-06T06:19:11;-0.40;75.10
38592;DHT22;24356;48.460;11.450;2023-04-06T06:21:38;-0.10;74.40
38592;DHT22;24356;48.460;11.450;2023-04-06T06:24:04;0.10;74.00
38592;DHT22;24356;48.460;11.450;2023-04-06T06:26:29;0.40;73.70
38592;DHT22;24356;48.460;11.450;2023-04-06T06:28:55;0.60;73.20
38592;DHT22;24356;48.460;11.450;2023-04-06T06:31:21;0.90;72.90
38592;DHT22;24356;48.460;11.450;2023-04-06T06:33:48;1.10;72.60
38592;DHT22;24356;48.460;11.450;2023-04-06T06:36:16;1.30;72.50
38592;DHT22;24356;48.460;11.450;2023-04-06T06:38:42;1.40;72.30
38592;DHT22;24356;48.460;11.450;2023-04-06T06:41:08;1.50;72.10
38592;DHT22;24356;48.460;11.450;2023-04-06T06:43:33;1.60;72.10
38592;DHT22;24356;48.460;11.450;2023-04-06T06:45:59;1.80;72.30
38592;DHT22;24356;48.460;11.450;2023-04-06T06:48:24;1.90;72.40
38592;DHT22;24356;48.460;11.450;2023-04-06T06:50:50;2.00;72.60
38592;DHT22;24356;48.460;11.450;2023-04-06T06:53:16;2.20;72.40
38592;DHT22;24356;48.460;11.450;2023-04-06T06:55:41;2.30;72.10
38592;DHT22;24356;48.460;11.450;2023-04-06T06:58:09;2.50;72.00
38592;DHT22;24356;48.460;11.450;2023-04-06T07:00:35;2.70;71.70
38592;DHT22;24356;48.460;11.450;2023-04-06T07:03:00;2.90;71.60
38592;DHT22;24356;48.460;11.450;2023-04-06T07:05:26;3.10;71.20
38592;DHT22;24356;48.460;11.450;2023-04-06T07:07:52;3.40;70.60
38592;DHT22;24356;48.460;11.450;2023-04-06T07:10:17;3.70;70.10
38592;DHT22;24356;48.460;11.450;2023-04-06T07:12:43;4.00;69.80
38592;DHT22;24356;48.460;11.450;2023-04-06T07:15:09;4.30;69.20
38592;DHT22;24356;48.460;11.450;2023-04-06T07:17:34;4.50;69.10
38592;DHT22;24356;48.460;11.450;2023-04-06T07:20:00;4.80;68.70
38592;DHT22;24356;48.460;11.450;2023-04-06T07:22:25;5.00;68.70
38592;DHT22;24356;48.460;11.450;2023-04-06T07:24:51;5.30;68.60
38592;DHT22;24356;48.460;11.450;2023-04-06T07:27:16;5.50;68.50
38592;DHT22;24356;48.460;11.450;2023-04-06T07:29:44;5.70;68.00
38592;DHT22;24356;48.460;11.450;2023-04-06T07:32:10;5.90;67.70
38592;DHT22;24356;48.460;11.450;2023-04-06T07:34:35;6.20;67.60
38592;DHT22;24356;48.460;11.450;2023-04-06T07:37:01;6.40;66.90
38592;DHT22;24356;48.460;11.450;2023-04-06T07:39:27;6.60;66.60
38592;DHT22;24356;48.460;11.450;2023-04-06T07:41:53;6.80;66.90
38592;DHT22;24356;48.460;11.450;2023-04-06T07:44:18;7.10;66.30
38592;DHT22;24356;48.460;11.450;2023-04-06T07:46:44;7.30;66.50
38592;DHT22;24356;48.460;11.450;2023-04-06T07:49:10;7.60;66.50
38592;DHT22;24356;48.460;11.450;2023-04-06T07:51:37;7.90;66.70
38592;DHT22;24356;48.460;11.450;2023-04-06T07:54:03;8.30;65.80
38592;DHT22;24356;48.460;11.450;2023-04-06T07:56:28;8.60;65.80
38592;DHT22;24356;48.460;11.450;2023-04-06T07:58:54;9.00;64.90
38592;DHT22;24356;48.460;11.450;2023-04-06T08:01:23;9.30;64.90
38592;DHT22;24356;48.460;11.450;2023-04-06T08:03:49;9.70;64.00
38592;DHT22;24356;48.460;11.450;2023-04-06T08:06:16;9.90;64.00
38592;DHT22;24356;48.460;11.450;2023-04-06T08:08:42;10.10;63.60
38592;DHT22;24356;48.460;11.450;2023-04-06T08:11:08;10.40;63.50
38592;DHT22;24356;48.460;11.450;2023-04-06T08:13:34;10.70;63.50
38592;DHT22;24356;48.460;11.450;2023-04-06T08:15:59;10.90;62.10
38592;DHT22;24356;48.460;11.450;2023-04-06T08:18:25;11.10;62.90
38592;DHT22;24356;48.460;11.450;2023-04-06T08:20:51;11.40;62.20
38592;DHT22;24356;48.460;11.450;2023-04-06T08:23:18;11.60;62.00
38592;DHT22;24356;48.460;11.450;2023-04-06T08:25:44;11.90;61.80
38592;DHT22;24356;48.460;11.450;2023-04-06T08:28:09;12.10;60.70
38592;DHT22;24356;48.460;11.450;2023-04-06T08:30:36;12.30;61.20
38592;DHT22;24356;48.460;11.450;2023-04-06T08:33:02;12.40;61.50
38592;DHT22;24356;48.460;11.450;2023-04-06T08:35:28;12.60;60.70
38592;DHT22;24356;48.460;11.450;2023-04-06T08:37:53;12.70;60.20
38592;DHT22;24356;48.460;11.450;2023-04-06T08:40:20;12.90;60.10
38592;DHT22;24356;48.460;11.450;2023-04-06T08:42:52;13.10;61.10
38592;DHT22;24356;48.460;11.450;2023-04-06T08:45:19;13.40;60.20
38592;DHT22;24356;48.460;11.450;2023-04-06T08:47:48;13.60;58.70
38592;DHT22;24356;48.460;11.450;2023-04-06T08:50:16;13.80;59.20
38592;DHT22;24356;48.460;11.450;2023-04-06T08:52:46;14.00;59.30
38592;DHT22;24356;48.460;11.450;2023-04-06T08:55:12;14.00;59.10
38592;DHT22;24356;48.460;11.450;2023-04-06T08:57:38;13.90;58.60
38592;DHT22;24356;48.460;11.450;2023-04-06T09:00:04;13.80;56.80
38592;DHT22;24356;48.460;11.450;2023-04-06T09:02:31;13.90;57.70
38592;DHT22;24356;48.460;11.450;2023-04-06T09:04:57;14.00;57.80
38592;DHT22;24356;48.460;11.450;2023-04-06T09:07:23;14.20;58.40
38592;DHT22;24356;48.460;11.450;2023-04-06T09:09:49;14.50;58.40
38592;DHT22;24356;48.460;11.450;2023-04-06T09:12:31;14.80;58.90
38592;DHT22;24356;48.460;11.450;2023-04-06T09:14:57;15.10;56.30
38592;DHT22;24356;48.460;11.450;2023-04-06T09:17:28;15.30;56.00
38592;DHT22;24356;48.460;11.450;2023-04-06T09:19:54;15.50;56.10
38592;DHT22;24356;48.460;11.450;2023-04-06T09:22:20;15.70;57.30
38592;DHT22;24356;48.460;11.450;2023-04-06T09:24:52;15.90;56.00
38592;DHT22;24356;48.460;11.450;2023-04-06T09:27:29;16.10;55.50
38592;DHT22;24356;48.460;11.450;2023-04-06T09:30:09;16.30;55.10
38592;DHT22;24356;48.460;11.450;2023-04-06T09:35:13;16.70;54.00
38592;DHT22;24356;48.460;11.450;2023-04-06T09:37:40;16.80;54.10
38592;DHT22;24356;48.460;11.450;2023-04-06T09:40:06;16.90;54.20
38592;DHT22;24356;48.460;11.450;2023-04-06T09:42:33;17.10;55.50
38592;DHT22;24356;48.460;11.450;2023-04-06T09:45:00;17.30;54.70
38592;DHT22;24356;48.460;11.450;2023-04-06T09:47:26;17.40;54.90
38592;DHT22;24356;48.460;11.450;2023-04-06T09:49:57;17.60;54.50
38592;DHT22;24356;48.460;11.450;2023-04-06T09:52:33;17.70;54.80
38592;DHT22;24356;48.460;11.450;2023-04-06T09:55:03;17.80;54.70
38592;DHT22;24356;48.460;11.450;2023-04-06T09:57:33;17.90;54.50
38592;DHT22;24356;48.460;11.450;2023-04-06T10:00:04;18.00;54.10
38592;DHT22;24356;48.460;11.450;2023-04-06T10:05:20;18.10;55.60
38592;DHT22;24356;48.460;11.450;2023-04-06T10:07:48;18.00;54.90
38592;DHT22;24356;48.460;11.450;2023-04-06T10:10:16;18.00;52.80
38592;DHT22;24356;48.460;11.450;2023-04-06T10:12:43;18.10;54.50
38592;DHT22;24356;48.460;11.450;2023-04-06T10:15:09;18.10;53.20
38592;DHT22;24356;48.460;11.450;2023-04-06T10:17:35;18.10;54.10
38592;DHT22;24356;48.460;11.450;2023-04-06T10:25:32;18.40;55.00
38592;DHT22;24356;48.460;11.450;2023-04-06T10:28:08;18.50;55.00
38592;DHT22;24356;48.460;11.450;2023-04-06T10:30:35;18.50;54.40
38592;DHT22;24356;48.460;11.450;2023-04-06T10:33:01;18.50;54.50
38592;DHT22;24356;48.460;11.450;2023-04-06T10:35:38;18.60;54.70
38592;DHT22;24356;48.460;11.450;2023-04-06T10:38:05;18.70;54.30
38592;DHT22;24356;48.460;11.450;2023-04-06T10:40:31;18.70;55.00
38592;DHT22;24356;48.460;11.450;2023-04-06T10:43:10;18.80;55.90
38592;DHT22;24356;48.460;11.450;2023-04-06T10:45:36;18.80;56.60
38592;DHT22;24356;48.460;11.450;2023-04-06T10:48:23;18.90;55.20
38592;DHT22;24356;48.460;11.450;2023-04-06T10:50:51;19.00;55.30
38592;DHT22;24356;48.460;11.450;2023-04-06T10:53:24;19.00;55.70
38592;DHT22;24356;48.460;11.450;2023-04-06T10:55:51;18.90;55.60
38592;DHT22;24356;48.460;11.450;2023-04-06T10:58:17;18.90;55.80
38592;DHT22;24356;48.460;11.450;2023-04-06T11:00:48;18.90;55.10
38592;DHT22;24356;48.460;11.450;2023-04-06T11:03:14;18.90;57.00
38592;DHT22;24356;48.460;11.450;2023-04-06T11:05:48;18.90;55.40
38592;DHT22;24356;48.460;11.450;2023-04-06T11:08:29;18.90;56.60
38592;DHT22;24356;48.460;11.450;2023-04-06T11:11:12;19.00;55.20
38592;DHT22;24356;48.460;11.450;2023-04-06T11:13:49;19.00;56.80
38592;DHT22;24356;48.460;11.450;2023-04-06T11:16:26;19.10;57.40
38592;DHT22;24356;48.460;11.450;2023-04-06T11:18:54;19.10;56.60
38592;DHT22;24356;48.460;11.450;2023-04-06T11:24:11;19.10;56.20
38592;DHT22;24356;48.460;11.450;2023-04-06T11:26:57;18.90;56.90
38592;DHT22;24356;48.460;11.450;2023-04-06T11:29:27;18.70;57.10
38592;DHT22;24356;48.460;11.450;2023-04-06T11:32:04;18.60;60.20
38592;DHT22;24356;48.460;11.450;2023-04-06T11:34:32;18.50;58.00
38592;DHT22;24356;48.460;11.450;2023-04-06T11:37:00;18.40;57.60
38592;DHT22;24356;48.460;11.450;2023-04-06T11:39:28;18.20;57.40
38592;DHT22;24356;48.460;11.450;2023-04-06T11:42:00;18.10;58.70
38592;DHT22;24356;48.460;11.450;2023-04-06T11:44:33;17.80;58.70
38592;DHT22;24356;48.460;11.450;2023-04-06T11:47:01;17.60;59.50
38592;DHT22;24356;48.460;11.450;2023-04-06T11:52:00;17.40;60.00
38592;DHT22;24356;48.460;11.450;2023-04-06T11:54:36;17.40;61.30
38592;DHT22;24356;48.460;11.450;2023-04-06T11:57:04;17.40;59.90
38592;DHT22;24356;48.460;11.450;2023-04-06T11:59:30;17.30;58.20
38592;DHT22;24356;48.460;11.450;2023-04-06T12:01:57;17.20;59.50
38592;DHT22;24356;48.460;11.450;2023-04-06T12:04:23;17.10;58.70
38592;DHT22;24356;48.460;11.450;2023-04-06T12:06:48;17.10;58.30
38592;DHT22;24356;48.460;11.450;2023-04-06T12:09:14;17.00;58.50
38592;DHT22;24356;48.460;11.450;2023-04-06T12:11:40;17.00;57.40
38592;DHT22;24356;48.460;11.450;2023-04-06T12:14:06;17.00;57.30
38592;DHT22;24356;48.460;11.450;2023-04-06T12:16:33;17.10;57.60
38592;DHT22;24356;48.460;11.450;2023-04-06T12:18:59;17.30;59.30
38592;DHT22;24356;48.460;11.450;2023-04-06T12:21:27;17.40;58.10
38592;DHT22;24356;48.460;11.450;2023-04-06T12:23:54;17.50;57.40
38592;DHT22;24356;48.460;11.450;2023-04-06T12:26:21;17.50;57.20
38592;DHT22;24356;48.460;11.450;2023-04-06T12:28:46;17.60;57.00
38592;DHT22;24356;48.460;11.450;2023-04-06T12:31:21;17.60;57.00
38592;DHT22;24356;48.460;11.450;2023-04-06T12:33:48;17.70;57.80
38592;DHT22;24356;48.460;11.450;2023-04-06T12:36:18;17.80;58.60
38592;DHT22;24356;48.460;11.450;2023-04-06T12:38:48;17.80;57.70
38592;DHT22;24356;48.460;11.450;2023-04-06T12:41:14;17.90;58.40
38592;DHT22;24356;48.460;11.450;2023-04-06T12:43:41;17.90;58.80
38592;DHT22;24356;48.460;11.450;2023-04-06T12:46:06;18.00;58.90
38592;DHT22;24356;48.460;11.450;2023-04-06T12:48:32;18.10;59.30
38592;DHT22;24356;48.460;11.450;2023-04-06T12:51:00;18.10;58.60
38592;DHT22;24356;48.460;11.450;2023-04-06T12:53:25;18.20;58.90
38592;DHT22;24356;48.460;11.450;2023-04-06T12:55:53;18.30;59.90
38592;DHT22;24356;48.460;11.450;2023-04-06T12:58:19;18.40;60.10
38592;DHT22;24356;48.460;11.450;2023-04-06T13:00:44;18.50;61.00
38592;DHT22;24356;48.460;11.450;2023-04-06T13:03:10;18.60;60.20
38592;DHT22;24356;48.460;11.450;2023-04-06T13:05:36;18.60;61.30
38592;DHT22;24356;48.460;11.450;2023-04-06T13:08:08;18.70;60.80
38592;DHT22;24356;48.460;11.450;2023-04-06T13:10:34;18.80;60.30
38592;DHT22;24356;48.460;11.450;2023-04-06T13:12:59;18.90;62.90
38592;DHT22;24356;48.460;11.450;2023-04-06T13:15:25;18.90;61.20
38592;DHT22;24356;48.460;11.450;2023-04-06T13:17:51;18.90;61.50
38592;DHT22;24356;48.460;11.450;2023-04-06T13:20:16;18.90;63.00
38592;DHT22;24356;48.460;11.450;2023-04-06T13:22:42;18.90;62.40
38592;DHT22;24356;48.460;11.450;2023-04-06T13:25:08;19.00;62.40
38592;DHT22;24356;48.460;11.450;2023-04-06T13:27:34;19.10;63.30
38592;DHT22;24356;48.460;11.450;2023-04-06T13:30:01;19.30;63.40
38592;DHT22;24356;48.460;11.450;2023-04-06T13:32:29;19.30;62.10
38592;DHT22;24356;48.460;11.450;2023-04-06T13:34:55;19.40;62.10
38592;DHT22;24356;48.460;11.450;2023-04-06T13:37:21;19.50;62.60
38592;DHT22;24356;48.460;11.450;2023-04-06T13:39:47;19.50;62.40
38592;DHT22;24356;48.460;11.450;2023-04-06T13:42:14;19.60;62.80
38592;DHT22;24356;48.460;11.450;2023-04-06T13:44:40;19.70;64.30
38592;DHT22;24356;48.460;11.450;2023-04-06T13:47:05;19.70;64.40
38592;DHT22;24356;48.460;11.450;2023-04-06T13:49:31;19.70;65.30
38592;DHT22;24356;48.460;11.450;2023-04-06T13:51:57;19.80;65.00
38592;DHT22;24356;48.460;11.450;2023-04-06T13:54:26;19.70;64.60
38592;DHT22;24356;48.460;11.450;2023-04-06T13:56:51;19.70;63.80
38592;DHT22;24356;48.460;11.450;2023-04-06T13:59:17;19.50;63.30
38592;DHT22;24356;48.460;11.450;2023-04-06T14:01:44;19.30;62.30
38592;DHT22;24356;48.460;11.450;2023-04-06T14:04:10;19.10;63.50
38592;DHT22;24356;48.460;11.450;2023-04-06T14:06:36;19.00;62.50
38592;DHT22;24356;48.460;11.450;2023-04-06T14:09:02;18.90;62.80
38592;DHT22;24356;48.460;11.450;2023-04-06T14:11:28;18.90;63.20
38592;DHT22;24356;48.460;11.450;2023-04-06T14:13:53;19.00;64.00
38592;DHT22;24356;48.460;11.450;2023-04-06T14:16:19;19.00;64.60
38592;DHT22;24356;48.460;11.450;2023-04-06T14:18:45;19.10;65.40
38592;DHT22;24356;48.460;11.450;2023-04-06T14:21:11;19.10;66.10
38592;DHT22;24356;48.460;11.450;2023-04-06T14:23:36;19.20;66.80
38592;DHT22;24356;48.460;11.450;2023-04-06T14:26:08;19.20;67.30
38592;DHT22;24356;48.460;11.450;2023-04-06T14:28:34;19.30;66.50
38592;DHT22;24356;48.460;11.450;2023-04-06T14:31:02;19.30;66.90
38592;DHT22;24356;48.460;11.450;2023-04-06T14:33:30;19.40;67.20
38592;DHT22;24356;48.460;11.450;2023-04-06T14:35:56;19.40;67.20
38592;DHT22;24356;48.460;11.450;2023-04-06T14:38:21;19.40;67.00
38592;DHT22;24356;48.460;11.450;2023-04-06T14:40:48;19.40;66.70
38592;DHT22;24356;48.460;11.450;2023-04-06T14:43:14;19.30;66.20
38592;DHT22;24356;48.460;11.450;2023-04-06T14:45:40;19.20;65.20
38592;DHT22;24356;48.460;11.450;2023-04-06T14:48:06;19.10;63.60
38592;DHT22;24356;48.460;11.450;2023-04-06T14:50:32;18.90;62.30
38592;DHT22;24356;48.460;11.450;2023-04-06T14:53:00;18.60;61.80
38592;DHT22;24356;48.460;11.450;2023-04-06T14:55:26;18.30;60.50
38592;DHT22;24356;48.460;11.450;2023-04-06T14:57:51;18.00;60.00
38592;DHT22;24356;48.460;11.450;2023-04-06T15:00:17;17.70;59.60
38592;DHT22;24356;48.460;11.450;2023-04-06T15:02:43;17.40;58.90
38592;DHT22;24356;48.460;11.450;2023-04-06T15:05:09;17.20;58.90
38592;DHT22;24356;48.460;11.450;2023-04-06T15:07:34;17.00;58.90
38592;DHT22;24356;48.460;11.450;2023-04-06T15:10:00;16.80;59.00
38592;DHT22;24356;48.460;11.450;2023-04-06T15:12:26;16.60;59.30
38592;DHT22;24356;48.460;11.450;2023-04-06T15:14:55;16.40;59.50
38592;DHT22;24356;48.460;11.450;2023-04-06T15:17:20;16.30;59.60
38592;DHT22;24356;48.460;11.450;2023-04-06T15:19:46;16.20;60.40
38592;DHT22;24356;48.460;11.450;2023-04-06T15:22:13;16.20;60.90
38592;DHT22;24356;48.460;11.450;2023-04-06T15:24:38;16.20;60.70
38592;DHT22;24356;48.460;11.450;2023-04-06T15:27:05;16.20;61.30
38592;DHT22;24356;48.460;11.450;2023-04-06T15:29:31;16.10;62.30
38592;DHT22;24356;48.460;11.450;2023-04-06T15:31:57;16.10;63.70